createdAt,value
2017-10-17T00:00:05.289Z,16.98
2017-10-17T00:02:35.508Z,16.52
2017-10-17T00:05:04.740Z,16.80
2017-10-17T00:07:34.193Z,15.32
2017-10-17T00:10:03.433Z,15.40
2017-10-17T00:12:32.676Z,16.33
2017-10-17T00:15:01.803Z,16.08
2017-10-17T00:17:31.295Z,16.20
2017-10-17T00:20:00.805Z,16.00
2017-10-17T00:22:30.037Z,16.33
2017-10-17T00:24:59.268Z,16.55
2017-10-17T00:27:28.388Z,16.92
2017-10-17T00:29:57.865Z,15.02
2017-10-17T00:32:36.882Z,14.55
2017-10-17T00:35:16.928Z,14.30
2017-10-17T00:37:46.178Z,15.55
2017-10-17T00:40:15.509Z,14.70
2017-10-17T00:42:44.824Z,16.40
2017-10-17T00:45:13.811Z,15.80
2017-10-17T00:47:43.173Z,14.10
2017-10-17T00:50:12.481Z,15.52
2017-10-17T00:52:41.975Z,13.35
2017-10-17T00:55:10.953Z,14.02
2017-10-17T00:57:40.277Z,14.10
2017-10-17T01:00:09.544Z,15.48
2017-10-17T01:02:38.786Z,13.90
2017-10-17T01:05:07.966Z,15.30
2017-10-17T01:07:37.590Z,16.77
2017-10-17T01:10:06.904Z,18.12
2017-10-17T01:12:36.150Z,17.33
2017-10-17T01:15:05.631Z,14.52
2017-10-17T01:17:34.909Z,17.37
2017-10-17T01:23:04.285Z,16.62
2017-10-17T01:25:33.517Z,14.80
2017-10-17T01:28:02.526Z,15.00
2017-10-17T01:30:31.773Z,15.13
2017-10-17T01:33:05.286Z,16.10
2017-10-17T01:35:34.517Z,17.95
2017-10-17T01:38:07.093Z,18.12
2017-10-17T01:40:36.078Z,17.87
2017-10-17T01:43:05.856Z,18.62
2017-10-17T01:45:34.845Z,18.77
2017-10-17T01:48:06.657Z,17.85
2017-10-17T01:50:36.418Z,17.20
2017-10-17T01:53:10.214Z,18.45
2017-10-17T01:55:39.213Z,16.73
2017-10-17T01:58:18.949Z,16.75
2017-10-17T02:00:47.904Z,16.90
2017-10-17T02:03:17.184Z,15.75
2017-10-17T02:05:46.632Z,15.82
2017-10-17T02:08:15.655Z,14.30
2017-10-17T02:10:55.072Z,16.62
2017-10-17T02:13:24.382Z,15.65
2017-10-17T02:15:53.380Z,16.77
2017-10-17T02:18:23.741Z,16.48
2017-10-17T02:20:52.736Z,14.50
2017-10-17T02:23:22.253Z,15.60
2017-10-17T02:25:54.076Z,16.17
2017-10-17T02:28:27.638Z,17.37
2017-10-17T02:30:57.563Z,20.00
2017-10-17T02:33:37.316Z,18.35
2017-10-17T02:36:06.613Z,18.48
2017-10-17T02:38:35.890Z,16.62
2017-10-17T02:41:06.714Z,19.37
2017-10-17T02:43:39.303Z,17.00
2017-10-17T02:46:08.327Z,16.55
2017-10-17T02:48:41.922Z,17.45
2017-10-17T02:51:10.950Z,17.95
2017-10-17T02:53:40.260Z,16.75
2017-10-17T02:56:09.250Z,17.90
2017-10-17T02:58:38.277Z,17.62
2017-10-17T03:01:08.794Z,17.98
2017-10-17T03:03:43.661Z,20.30
2017-10-17T03:06:12.452Z,20.67
2017-10-17T03:08:41.769Z,21.40
2017-10-17T03:11:10.786Z,22.35
2017-10-17T03:16:40.717Z,23.30
2017-10-17T03:19:09.719Z,24.25
2017-10-17T03:21:41.444Z,24.60
2017-10-17T03:24:11.227Z,22.00
2017-10-17T03:26:40.640Z,21.35
2017-10-17T03:29:09.662Z,21.98
2017-10-17T03:31:38.925Z,20.88
2017-10-17T03:34:07.628Z,19.77
2017-10-17T03:36:38.649Z,19.37
2017-10-17T03:39:07.320Z,17.65
2017-10-17T03:41:36.620Z,18.75
2017-10-17T03:47:09.734Z,21.95
2017-10-17T03:49:38.686Z,22.85
2017-10-17T03:52:19.891Z,25.42
2017-10-17T03:54:49.113Z,25.08
2017-10-17T03:57:19.732Z,25.05
2017-10-17T04:00:03.126Z,27.02
2017-10-17T04:02:32.208Z,25.67
2017-10-17T04:05:17.524Z,23.60
2017-10-17T04:07:57.617Z,24.98
2017-10-17T04:10:48.729Z,20.00
2017-10-17T04:13:39.004Z,20.92
2017-10-17T04:16:14.132Z,22.75
2017-10-17T04:18:46.576Z,22.35
2017-10-17T04:21:20.699Z,20.65
2017-10-17T04:23:55.726Z,19.33
2017-10-17T04:26:24.429Z,25.20
2017-10-17T04:28:59.676Z,21.08
2017-10-17T04:31:48.764Z,20.90
2017-10-17T04:34:30.035Z,20.25
2017-10-17T04:39:55.324Z,18.55
2017-10-17T04:42:50.564Z,17.48
2017-10-17T04:45:40.175Z,19.62
2017-10-17T04:51:28.898Z,19.37
2017-10-17T04:54:18.289Z,19.70
2017-10-17T04:57:06.736Z,18.17
2017-10-17T04:59:41.320Z,20.20
2017-10-17T05:02:13.781Z,19.62
2017-10-17T05:04:45.139Z,18.50
2017-10-17T05:07:17.599Z,19.40
2017-10-17T05:09:49.242Z,18.37
2017-10-17T05:12:18.816Z,18.40
2017-10-17T05:14:47.511Z,17.58
2017-10-17T05:17:34.352Z,17.12
2017-10-17T05:23:06.938Z,15.55
2017-10-17T05:25:36.328Z,16.50
2017-10-17T05:28:05.959Z,17.48
2017-10-17T05:30:38.023Z,19.90
2017-10-17T05:33:14.173Z,15.65
2017-10-17T05:35:43.674Z,15.52
2017-10-17T05:38:12.675Z,15.93
2017-10-17T05:40:41.791Z,22.85
2017-10-17T05:43:17.305Z,18.27
2017-10-17T05:45:46.401Z,19.60
2017-10-17T05:48:15.953Z,17.02
2017-10-17T05:50:47.331Z,16.73
2017-10-17T05:53:16.294Z,16.15
2017-10-17T05:55:45.585Z,15.40
2017-10-17T05:58:14.885Z,16.95
2017-10-17T06:00:44.179Z,16.02
2017-10-17T06:03:13.529Z,17.12
2017-10-17T06:05:42.875Z,19.15
2017-10-17T06:08:12.137Z,18.25
2017-10-17T06:10:41.517Z,20.40
2017-10-17T06:13:10.808Z,23.15
2017-10-17T06:15:40.125Z,24.15
2017-10-17T06:18:09.921Z,24.17
2017-10-17T06:20:39.693Z,27.98
2017-10-17T06:23:09.548Z,32.05
2017-10-17T06:25:39.344Z,29.05
2017-10-17T06:28:09.227Z,29.33
2017-10-17T06:30:39.059Z,31.77
2017-10-17T06:33:08.968Z,32.90
2017-10-17T06:35:38.718Z,32.28
2017-10-17T06:38:08.498Z,32.88
2017-10-17T06:40:38.276Z,33.67
2017-10-17T06:43:08.062Z,35.22
2017-10-17T06:45:37.858Z,40.42
2017-10-17T06:48:07.829Z,38.63
2017-10-17T06:50:37.642Z,43.97
2017-10-17T06:53:07.234Z,39.40
2017-10-17T06:55:37.167Z,37.90
2017-10-17T06:58:07.184Z,37.72
2017-10-17T07:00:37.002Z,34.75
2017-10-17T07:03:06.784Z,35.15
2017-10-17T07:05:36.562Z,34.03
2017-10-17T07:08:06.375Z,33.58
2017-10-17T07:10:36.666Z,31.48
2017-10-17T07:13:06.447Z,34.42
2017-10-17T07:15:36.208Z,33.85
2017-10-17T07:18:05.972Z,34.22
2017-10-17T07:20:35.761Z,36.13
2017-10-17T07:23:05.525Z,36.95
2017-10-17T07:25:35.317Z,33.75
2017-10-17T07:28:04.758Z,34.72
2017-10-17T07:30:34.362Z,32.90
2017-10-17T07:33:04.144Z,28.85
2017-10-17T07:35:33.951Z,29.60
2017-10-17T07:38:03.700Z,26.55
2017-10-17T07:40:37.981Z,30.45
2017-10-17T07:43:07.594Z,32.33
2017-10-17T07:45:37.395Z,25.80
2017-10-17T07:48:06.970Z,28.77
2017-10-17T07:50:36.541Z,30.52
2017-10-17T07:53:06.210Z,27.17
2017-10-17T07:55:35.830Z,38.67
2017-10-17T07:58:05.620Z,35.20
2017-10-17T08:00:35.431Z,38.42
2017-10-17T08:03:05.194Z,42.53
2017-10-17T08:05:34.430Z,44.97
2017-10-17T08:08:03.921Z,50.20
2017-10-17T08:10:33.706Z,46.05
2017-10-17T08:13:03.473Z,54.90
2017-10-17T08:15:33.240Z,54.13
2017-10-17T08:18:02.816Z,56.90
2017-10-17T08:20:32.294Z,55.30
2017-10-17T08:23:01.763Z,55.80
2017-10-17T08:25:31.566Z,52.50
2017-10-17T08:28:01.342Z,50.60
2017-10-17T08:30:31.177Z,52.80
2017-10-17T08:33:00.920Z,51.20
2017-10-17T08:35:30.699Z,53.60
2017-10-17T08:38:00.493Z,51.83
2017-10-17T08:40:30.365Z,49.05
2017-10-17T08:43:00.549Z,49.00
2017-10-17T08:45:30.369Z,47.60
2017-10-17T08:47:59.962Z,47.60
2017-10-17T08:50:29.634Z,44.78
2017-10-17T08:52:58.913Z,42.93
2017-10-17T08:55:28.494Z,32.83
2017-10-17T08:57:57.962Z,24.40
2017-10-17T09:00:27.446Z,25.50
2017-10-17T09:02:56.913Z,28.33
2017-10-17T09:05:26.396Z,25.00
2017-10-17T09:07:55.942Z,25.03
2017-10-17T09:10:25.405Z,29.10
2017-10-17T09:12:54.919Z,29.40
2017-10-17T09:15:24.397Z,31.00
2017-10-17T09:17:53.694Z,30.20
2017-10-17T09:20:23.171Z,27.90
2017-10-17T09:22:52.656Z,27.90
2017-10-17T09:25:22.201Z,27.10
2017-10-17T09:27:51.681Z,27.20
2017-10-17T09:30:21.160Z,25.67
2017-10-17T09:32:50.667Z,26.80
2017-10-17T09:35:20.189Z,25.43
2017-10-17T09:37:49.605Z,26.20
2017-10-17T09:40:19.103Z,27.37
2017-10-17T09:42:48.615Z,24.57
2017-10-17T09:45:18.067Z,28.77
2017-10-17T09:47:47.553Z,28.73
2017-10-17T09:50:17.016Z,30.10
2017-10-17T09:52:46.553Z,28.77
2017-10-17T09:55:16.105Z,27.87
2017-10-17T09:57:45.575Z,29.90
2017-10-17T10:00:15.133Z,30.13
2017-10-17T10:02:44.535Z,34.57
2017-10-17T10:05:13.825Z,34.10
2017-10-17T10:07:43.107Z,31.53
2017-10-17T10:10:12.858Z,32.60
2017-10-17T10:12:42.343Z,29.90
2017-10-17T10:15:11.806Z,30.57
2017-10-17T10:17:41.091Z,30.07
2017-10-17T10:20:10.579Z,29.23
2017-10-17T10:22:39.862Z,30.23
2017-10-17T10:25:09.380Z,39.07
2017-10-17T10:27:38.671Z,35.90
2017-10-17T10:30:08.154Z,37.03
2017-10-17T10:32:37.658Z,40.77
2017-10-17T10:35:07.196Z,41.50
2017-10-17T10:37:36.676Z,40.60
2017-10-17T10:40:06.161Z,45.40
2017-10-17T10:42:35.678Z,30.90
2017-10-17T10:45:05.176Z,35.20
2017-10-17T10:47:34.674Z,43.80
2017-10-17T10:50:04.230Z,46.47
2017-10-17T10:52:33.734Z,42.17
2017-10-17T10:55:03.265Z,43.50
2017-10-17T10:57:32.731Z,45.87
2017-10-17T11:00:02.294Z,40.97
2017-10-17T11:02:31.630Z,41.93
2017-10-17T11:05:00.933Z,43.87
2017-10-17T11:07:30.394Z,43.47
2017-10-17T11:09:59.845Z,45.77
2017-10-17T11:12:29.315Z,43.43
2017-10-17T11:14:58.872Z,44.90
2017-10-17T11:17:28.345Z,44.63
2017-10-17T11:19:57.817Z,45.73
2017-10-17T11:22:27.126Z,42.70
2017-10-17T11:25:00.919Z,39.20
2017-10-17T11:27:30.429Z,37.90
2017-10-17T11:29:59.713Z,34.00
2017-10-17T11:32:29.169Z,28.77
2017-10-17T11:34:58.689Z,28.00
2017-10-17T11:37:28.124Z,30.00
2017-10-17T11:39:57.596Z,29.20
2017-10-17T11:42:38.154Z,28.90
2017-10-17T11:45:07.238Z,32.70
2017-10-17T11:47:36.874Z,30.67
2017-10-17T11:50:06.315Z,33.53
2017-10-17T11:52:37.080Z,36.63
2017-10-17T11:55:09.216Z,35.37
2017-10-17T11:57:38.941Z,34.40
2017-10-17T12:00:08.352Z,35.60
2017-10-17T12:02:37.998Z,34.43
2017-10-17T12:05:07.438Z,33.87
2017-10-17T12:07:37.332Z,34.60
2017-10-17T12:10:07.385Z,33.60
2017-10-17T12:12:40.442Z,34.00
2017-10-17T12:15:10.251Z,33.90
2017-10-17T12:17:39.882Z,33.20
2017-10-17T12:20:09.460Z,34.90
2017-10-17T12:22:39.061Z,34.83
2017-10-17T12:25:08.698Z,37.20
2017-10-17T12:27:38.209Z,38.10
2017-10-17T12:30:07.841Z,38.47
2017-10-17T12:32:37.539Z,43.27
2017-10-17T12:35:07.137Z,41.87
2017-10-17T12:37:36.688Z,37.60
2017-10-17T12:40:06.330Z,40.03
2017-10-17T12:42:35.893Z,40.50
2017-10-17T12:45:05.505Z,40.33
2017-10-17T12:47:35.271Z,41.00
2017-10-17T12:50:05.124Z,39.00
2017-10-17T12:52:34.605Z,38.50
2017-10-17T12:55:04.117Z,36.80
2017-10-17T12:57:33.725Z,34.07
2017-10-17T13:00:03.168Z,35.53
2017-10-17T13:02:32.589Z,36.20
2017-10-17T13:05:01.936Z,35.60
2017-10-17T13:07:31.388Z,33.80
2017-10-17T13:10:01.033Z,35.67
2017-10-17T13:12:30.649Z,29.80
2017-10-17T13:15:00.268Z,32.90
2017-10-17T13:17:29.609Z,31.63
2017-10-17T13:19:59.292Z,30.73
2017-10-17T13:22:28.525Z,27.87
2017-10-17T13:24:57.694Z,26.30
2017-10-17T13:27:27.285Z,17.90
2017-10-17T13:29:56.692Z,19.10
2017-10-17T13:32:26.265Z,23.73
2017-10-17T13:34:55.846Z,21.00
2017-10-17T13:37:25.426Z,20.63
2017-10-17T13:39:55.088Z,21.90
2017-10-17T13:42:24.758Z,15.10
2017-10-17T13:44:54.230Z,16.77
2017-10-17T13:47:23.755Z,17.70
2017-10-17T13:49:53.337Z,17.33
2017-10-17T13:52:22.921Z,16.53
2017-10-17T13:54:52.559Z,16.83
2017-10-17T13:57:22.078Z,12.47
2017-10-17T13:59:51.672Z,12.70
2017-10-17T14:02:21.243Z,9.77
2017-10-17T14:04:50.740Z,9.63
2017-10-17T14:07:20.254Z,8.97
2017-10-17T14:09:49.804Z,10.77
2017-10-17T14:12:19.383Z,10.37
2017-10-17T14:14:48.888Z,10.50
2017-10-17T14:17:18.397Z,11.87
2017-10-17T14:19:48.049Z,11.10
2017-10-17T14:22:17.591Z,11.83
2017-10-17T14:24:47.182Z,10.40
2017-10-17T14:27:16.714Z,9.80
2017-10-17T14:29:46.221Z,9.07
2017-10-17T14:32:15.758Z,8.90
2017-10-17T14:34:45.666Z,9.27
2017-10-17T14:37:15.312Z,7.90
2017-10-17T14:39:44.870Z,8.47
2017-10-17T14:42:14.386Z,7.60
2017-10-17T14:44:44.746Z,8.90
2017-10-17T14:47:14.330Z,9.00
2017-10-17T14:49:43.842Z,9.00
2017-10-17T14:52:13.401Z,8.87
2017-10-17T14:54:42.905Z,10.03
2017-10-17T14:57:12.318Z,9.53
2017-10-17T14:59:41.838Z,11.03
2017-10-17T15:02:11.566Z,10.93
2017-10-17T15:04:41.240Z,11.77
2017-10-17T15:07:10.762Z,11.73
2017-10-17T15:09:40.552Z,11.77
2017-10-17T15:12:10.105Z,12.77
2017-10-17T15:14:39.666Z,13.43
2017-10-17T15:17:09.450Z,13.20
2017-10-17T15:19:38.993Z,11.57
2017-10-17T15:22:08.608Z,13.03
2017-10-17T15:24:38.337Z,13.00
2017-10-17T15:27:08.038Z,12.87
2017-10-17T15:29:37.418Z,13.03
2017-10-17T15:32:07.048Z,12.30
2017-10-17T15:34:36.813Z,13.37
2017-10-17T15:37:06.369Z,13.40
2017-10-17T15:39:36.882Z,13.63
2017-10-17T15:42:06.786Z,14.50
2017-10-17T15:44:36.469Z,13.20
2017-10-17T15:47:06.080Z,12.40
2017-10-17T15:49:35.542Z,12.03
2017-10-17T15:52:05.026Z,13.20
2017-10-17T15:54:34.494Z,13.40
2017-10-17T15:57:03.960Z,12.00
2017-10-17T15:59:34.106Z,12.57
2017-10-17T16:02:03.645Z,12.80
2017-10-17T16:04:33.364Z,13.60
2017-10-17T16:07:02.880Z,13.47
2017-10-17T16:09:32.342Z,12.80
2017-10-17T16:12:01.818Z,12.37
2017-10-17T16:14:31.356Z,13.90
2017-10-17T16:17:00.822Z,11.60
2017-10-17T16:19:30.280Z,12.63
2017-10-17T16:21:59.747Z,13.17
2017-10-17T16:24:29.298Z,11.33
2017-10-17T16:26:58.736Z,13.40
2017-10-17T16:29:28.097Z,14.20
2017-10-17T16:31:57.361Z,14.50
2017-10-17T16:34:26.630Z,13.27
2017-10-17T16:36:56.217Z,13.70
2017-10-17T16:39:25.672Z,13.43
2017-10-17T16:41:55.135Z,13.13
2017-10-17T16:44:24.743Z,13.70
2017-10-17T16:46:54.238Z,13.60
2017-10-17T16:49:23.698Z,14.80
2017-10-17T16:51:52.995Z,15.70
2017-10-17T16:54:22.909Z,14.67
2017-10-17T16:56:52.208Z,15.80
2017-10-17T16:59:21.497Z,14.40
2017-10-17T17:01:50.799Z,14.17
2017-10-17T17:04:20.373Z,14.47
2017-10-17T17:06:49.827Z,14.40
2017-10-17T17:09:19.093Z,13.93
2017-10-17T17:11:48.671Z,14.10
2017-10-17T17:14:18.346Z,13.90
2017-10-17T17:16:47.809Z,15.63
2017-10-17T17:19:17.289Z,20.13
2017-10-17T17:21:46.769Z,16.53
2017-10-17T17:24:16.236Z,16.93
2017-10-17T17:26:45.708Z,16.37
2017-10-17T17:29:15.039Z,17.80
2017-10-17T17:31:44.498Z,15.73
2017-10-17T17:34:14.436Z,15.00
2017-10-17T17:36:44.163Z,15.23
2017-10-17T17:39:13.640Z,15.73
2017-10-17T17:41:42.911Z,14.83
2017-10-17T17:44:12.225Z,15.33
2017-10-17T17:46:41.687Z,14.33
2017-10-17T17:49:11.275Z,16.83
2017-10-17T17:51:40.647Z,15.33
2017-10-17T17:54:10.095Z,16.33
2017-10-17T17:56:39.593Z,16.37
2017-10-17T17:59:09.054Z,16.90
2017-10-17T18:01:38.524Z,16.17
2017-10-17T18:04:10.051Z,18.07
2017-10-17T18:06:39.761Z,16.30
2017-10-17T18:09:09.259Z,15.37
2017-10-17T18:11:38.554Z,16.83
2017-10-17T18:14:07.810Z,17.80
2017-10-17T18:16:37.084Z,17.37
2017-10-17T18:19:07.551Z,17.10
2017-10-17T18:21:37.312Z,19.70
2017-10-17T18:24:07.816Z,21.07
2017-10-17T18:26:37.835Z,20.40
2017-10-17T18:29:08.283Z,21.43
2017-10-17T18:31:38.633Z,23.30
2017-10-17T18:34:09.151Z,21.53
2017-10-17T18:36:39.640Z,22.40
2017-10-17T18:39:10.209Z,24.33
2017-10-17T18:41:40.988Z,25.57
2017-10-17T18:44:11.016Z,28.00
2017-10-17T18:46:41.023Z,25.17
2017-10-17T18:49:11.151Z,25.65
2017-10-17T18:51:41.528Z,23.65
2017-10-17T18:54:11.619Z,24.67
2017-10-17T18:56:41.394Z,24.60
2017-10-17T18:59:11.168Z,25.00
2017-10-17T19:01:40.854Z,23.90
2017-10-17T19:04:10.658Z,24.23
2017-10-17T19:06:40.431Z,25.40
2017-10-17T19:09:10.205Z,23.80
2017-10-17T19:11:40.388Z,24.83
2017-10-17T19:14:10.530Z,24.17
2017-10-17T19:16:40.791Z,25.20
2017-10-17T19:19:10.990Z,24.52
2017-10-17T19:21:41.366Z,26.65
2017-10-17T19:24:11.457Z,25.73
2017-10-17T19:26:41.554Z,25.75
2017-10-17T19:29:11.712Z,28.98
2017-10-17T19:31:41.903Z,27.67
2017-10-17T19:34:12.240Z,29.25
2017-10-17T19:36:42.525Z,29.00
2017-10-17T19:39:12.840Z,31.02
2017-10-17T19:41:42.747Z,32.25
2017-10-17T19:44:13.041Z,33.67
2017-10-17T19:46:43.088Z,29.60
2017-10-17T19:49:13.358Z,34.10
2017-10-17T19:51:42.821Z,38.22
2017-10-17T19:54:12.684Z,37.92
2017-10-17T19:56:42.808Z,35.20
2017-10-17T19:59:12.757Z,37.30
2017-10-17T20:01:43.009Z,36.05
2017-10-17T20:04:12.884Z,39.60
2017-10-17T20:06:43.115Z,34.20
2017-10-17T20:09:13.359Z,37.20
2017-10-17T20:11:43.716Z,38.20
2017-10-17T20:14:13.854Z,36.83
2017-10-17T20:16:43.635Z,37.63
2017-10-17T20:19:13.939Z,39.90
2017-10-17T20:21:44.098Z,38.92
2017-10-17T20:24:14.154Z,38.95
2017-10-17T20:26:44.144Z,40.10
2017-10-17T20:29:14.421Z,38.80
2017-10-17T20:31:44.531Z,43.10
2017-10-17T20:34:14.296Z,38.60
2017-10-17T20:36:44.221Z,40.63
2017-10-17T20:39:14.138Z,38.45
2017-10-17T20:41:47.734Z,39.55
2017-10-17T20:44:17.565Z,43.42
2017-10-17T20:46:47.141Z,45.72
2017-10-17T20:49:16.904Z,45.75
2017-10-17T20:51:48.617Z,41.55
2017-10-17T20:54:19.076Z,40.80
2017-10-17T20:56:49.347Z,38.85
2017-10-17T20:59:19.414Z,38.13
2017-10-17T21:01:49.405Z,40.92
2017-10-17T21:04:19.399Z,41.45
2017-10-17T21:06:49.313Z,40.38
2017-10-17T21:09:19.233Z,41.45
2017-10-17T21:11:49.082Z,40.85
2017-10-17T21:14:18.680Z,38.85
2017-10-17T21:16:48.831Z,41.63
2017-10-17T21:19:18.527Z,41.92
2017-10-17T21:21:48.486Z,41.78
2017-10-17T21:24:18.398Z,42.20
2017-10-17T21:26:48.262Z,47.30
2017-10-17T21:29:18.178Z,55.90
2017-10-17T21:31:47.763Z,46.97
2017-10-17T21:34:17.539Z,50.70
2017-10-17T21:36:47.424Z,50.22
2017-10-17T21:39:17.271Z,47.40
2017-10-17T21:41:47.035Z,46.35
2017-10-17T21:44:16.927Z,43.50
2017-10-17T21:46:46.855Z,46.45
2017-10-17T21:49:16.730Z,45.00
2017-10-17T21:51:46.725Z,46.28
2017-10-17T21:54:16.629Z,46.58
2017-10-17T21:56:46.544Z,46.40
2017-10-17T21:59:16.368Z,46.95
2017-10-17T22:01:46.500Z,46.47
2017-10-17T22:04:16.258Z,50.53
2017-10-17T22:06:46.115Z,52.45
2017-10-17T22:09:15.737Z,50.03
2017-10-17T22:11:45.628Z,46.92
2017-10-17T22:14:15.573Z,46.63
2017-10-17T22:16:45.408Z,49.58
2017-10-17T22:19:15.272Z,48.75
2017-10-17T22:21:45.349Z,52.15
2017-10-17T22:24:15.134Z,51.45
2017-10-17T22:26:44.852Z,51.72
2017-10-17T22:29:14.787Z,48.35
2017-10-17T22:31:44.736Z,52.05
2017-10-17T22:34:14.800Z,50.92
2017-10-17T22:36:44.668Z,49.65
2017-10-17T22:39:14.574Z,50.80
2017-10-17T22:41:44.497Z,54.53
2017-10-17T22:44:14.472Z,53.45
2017-10-17T22:46:44.267Z,53.60
2017-10-17T22:49:14.958Z,52.30
2017-10-17T22:51:44.836Z,52.28
2017-10-17T22:54:14.810Z,46.55
2017-10-17T22:56:44.749Z,47.88
2017-10-17T22:59:14.635Z,50.97
2017-10-17T23:01:44.358Z,52.03
2017-10-17T23:04:14.472Z,55.28
2017-10-17T23:06:44.228Z,60.75
2017-10-17T23:09:14.075Z,61.30
2017-10-17T23:11:43.963Z,55.10
2017-10-17T23:14:13.912Z,53.30
2017-10-17T23:16:54.902Z,51.17
2017-10-17T23:19:35.885Z,50.78
2017-10-17T23:22:05.607Z,49.15
2017-10-17T23:24:35.345Z,48.55
2017-10-17T23:27:05.239Z,48.22
2017-10-17T23:29:35.133Z,51.65
2017-10-17T23:32:05.075Z,52.08
2017-10-17T23:34:34.831Z,50.72
2017-10-17T23:37:04.534Z,51.78
2017-10-17T23:39:34.395Z,54.47
2017-10-17T23:42:04.166Z,51.63
2017-10-17T23:44:34.074Z,49.58
2017-10-17T23:47:03.963Z,50.15
2017-10-17T23:49:33.859Z,46.53
2017-10-17T23:52:03.821Z,52.17
2017-10-17T23:54:33.686Z,49.25
2017-10-17T23:57:03.551Z,48.50
2017-10-17T23:59:33.397Z,48.10
